createdAt,value
2023-04-29T00:01:14.388Z,13.15
2023-04-29T00:04:16.544Z,12.88
2023-04-29T00:07:18.622Z,14.95
2023-04-29T00:10:20.475Z,14.63
2023-04-29T00:13:22.468Z,12.00
2023-04-29T00:16:30.080Z,14.70
2023-04-29T00:19:31.915Z,14.50
2023-04-29T00:22:33.758Z,11.77
2023-04-29T00:25:36.155Z,13.25
2023-04-29T00:28:37.964Z,13.25
2023-04-29T00:31:39.901Z,12.93
2023-04-29T00:34:42.723Z,17.80
2023-04-29T00:37:44.691Z,13.68
2023-04-29T00:40:46.913Z,13.90
2023-04-29T00:43:48.706Z,10.85
2023-04-29T00:46:50.643Z,10.02
2023-04-29T00:49:52.907Z,11.93
2023-04-29T00:52:55.062Z,14.13
2023-04-29T00:55:57.182Z,9.68
2023-04-29T00:59:00.482Z,13.13
2023-04-29T01:02:04.244Z,10.65
2023-04-29T01:05:06.551Z,21.55
2023-04-29T01:08:27.573Z,11.63
2023-04-29T01:11:55.003Z,11.90
2023-04-29T01:15:17.211Z,9.32
2023-04-29T01:18:30.481Z,14.63
2023-04-29T01:21:32.637Z,14.52
2023-04-29T01:24:34.436Z,10.02
2023-04-29T01:28:02.854Z,13.15
2023-04-29T01:31:28.436Z,15.50
2023-04-29T01:34:50.242Z,10.80
2023-04-29T01:38:16.290Z,11.13
2023-04-29T01:41:42.566Z,10.20
2023-04-29T01:44:51.602Z,10.98
2023-04-29T01:47:58.071Z,9.65
2023-04-29T01:51:01.553Z,11.68
2023-04-29T01:54:05.282Z,8.85
2023-04-29T01:57:07.085Z,10.40
2023-04-29T02:00:27.338Z,9.77
2023-04-29T02:03:29.464Z,8.25
2023-04-29T02:06:32.341Z,9.68
2023-04-29T02:09:37.416Z,8.60
2023-04-29T02:12:44.668Z,8.60
2023-04-29T02:15:46.996Z,8.77
2023-04-29T02:18:49.177Z,9.55
2023-04-29T02:21:51.084Z,10.88
2023-04-29T02:24:53.176Z,10.95
2023-04-29T02:27:54.966Z,10.70
2023-04-29T02:30:57.090Z,12.02
2023-04-29T02:33:58.954Z,9.60
2023-04-29T02:37:00.804Z,10.02
2023-04-29T02:40:03.619Z,11.27
2023-04-29T02:43:05.908Z,11.50
2023-04-29T02:46:07.804Z,8.13
2023-04-29T02:49:12.294Z,10.40
2023-04-29T02:52:14.582Z,7.85
2023-04-29T02:55:17.477Z,9.10
2023-04-29T02:58:19.327Z,9.73
2023-04-29T03:01:22.043Z,8.55
2023-04-29T03:04:24.777Z,9.77
2023-04-29T03:07:28.020Z,8.30
2023-04-29T03:10:29.916Z,9.93
2023-04-29T03:13:31.802Z,12.18
2023-04-29T03:16:33.725Z,7.93
2023-04-29T03:19:37.337Z,7.70
2023-04-29T03:22:39.172Z,10.07
2023-04-29T03:25:41.717Z,8.52
2023-04-29T03:28:43.575Z,9.50
2023-04-29T03:31:45.783Z,10.93
2023-04-29T03:34:49.497Z,10.68
2023-04-29T03:38:00.359Z,10.68
2023-04-29T03:41:05.924Z,9.75
2023-04-29T03:44:07.944Z,11.80
2023-04-29T03:47:09.853Z,10.98
2023-04-29T03:50:12.074Z,11.00
2023-04-29T03:53:15.343Z,11.50
2023-04-29T03:56:17.544Z,10.18
2023-04-29T03:59:19.933Z,9.43
2023-04-29T04:02:23.594Z,9.48
2023-04-29T04:05:26.269Z,13.25
2023-04-29T04:08:33.707Z,7.57
2023-04-29T04:11:51.160Z,13.27
2023-04-29T04:14:54.148Z,7.78
2023-04-29T04:17:56.448Z,10.90
2023-04-29T04:20:58.361Z,12.40
2023-04-29T04:24:01.560Z,11.70
2023-04-29T04:27:05.161Z,12.85
2023-04-29T04:30:12.229Z,13.80
2023-04-29T04:33:14.025Z,10.50
2023-04-29T04:36:20.747Z,10.20
2023-04-29T04:39:22.839Z,9.90
2023-04-29T04:42:25.919Z,12.82
2023-04-29T04:45:31.610Z,14.02
2023-04-29T04:48:34.703Z,12.07
2023-04-29T04:51:36.825Z,14.30
2023-04-29T04:54:38.649Z,14.00
2023-04-29T04:57:48.247Z,8.88
2023-04-29T05:00:52.164Z,11.10
2023-04-29T05:03:55.497Z,10.60
2023-04-29T05:06:57.401Z,11.75
2023-04-29T05:10:03.692Z,8.57
2023-04-29T05:13:07.632Z,18.65
2023-04-29T05:16:09.979Z,9.13
2023-04-29T05:19:15.386Z,9.60
2023-04-29T05:22:17.467Z,8.07
2023-04-29T05:25:19.528Z,8.82
2023-04-29T05:28:22.156Z,11.27
2023-04-29T05:31:24.118Z,8.95
2023-04-29T05:34:26.485Z,9.45
2023-04-29T05:37:30.979Z,12.30
2023-04-29T05:40:58.966Z,13.02
2023-04-29T05:44:00.768Z,12.30
2023-04-29T05:47:02.647Z,11.82
2023-04-29T05:50:05.777Z,11.60
2023-04-29T05:53:07.879Z,13.15
2023-04-29T05:56:09.839Z,9.95
2023-04-29T05:59:12.355Z,9.95
2023-04-29T06:02:14.795Z,11.10
2023-04-29T06:05:20.064Z,9.52
2023-04-29T06:08:42.338Z,8.13
2023-04-29T06:11:54.979Z,8.55
2023-04-29T06:14:57.310Z,10.50
2023-04-29T06:17:59.297Z,14.35
2023-04-29T06:21:01.274Z,9.82
2023-04-29T06:24:03.249Z,23.25
2023-04-29T06:27:06.005Z,11.05
2023-04-29T06:30:08.631Z,13.98
2023-04-29T06:33:10.970Z,10.82
2023-04-29T06:36:13.009Z,10.40
2023-04-29T06:39:50.519Z,10.48
2023-04-29T06:43:02.355Z,10.98
2023-04-29T06:46:20.482Z,13.23
2023-04-29T06:49:31.137Z,10.15
2023-04-29T06:52:34.587Z,16.98
2023-04-29T06:55:36.396Z,11.65
2023-04-29T06:58:38.568Z,8.18
2023-04-29T07:01:44.459Z,12.45
2023-04-29T07:04:47.152Z,10.65
2023-04-29T07:07:50.930Z,22.15
2023-04-29T07:10:57.922Z,14.77
2023-04-29T07:13:59.638Z,24.38
2023-04-29T07:17:05.311Z,39.13
2023-04-29T07:20:09.322Z,38.42
2023-04-29T07:23:11.337Z,66.95
2023-04-29T07:26:15.750Z,65.13
2023-04-29T07:29:19.412Z,42.88
2023-04-29T07:32:21.526Z,39.05
2023-04-29T07:35:24.361Z,36.40
2023-04-29T07:38:26.375Z,33.45
2023-04-29T07:41:28.748Z,35.40
2023-04-29T07:44:30.567Z,25.77
2023-04-29T07:47:32.440Z,29.00
2023-04-29T07:50:37.564Z,15.82
2023-04-29T07:53:39.419Z,15.50
2023-04-29T07:56:41.262Z,13.32
2023-04-29T07:59:43.033Z,11.48
2023-04-29T08:02:46.557Z,12.00
2023-04-29T08:05:53.784Z,10.80
2023-04-29T08:08:56.604Z,8.88
2023-04-29T08:11:58.776Z,15.32
2023-04-29T08:15:00.577Z,8.50
2023-04-29T08:18:02.446Z,11.70
2023-04-29T08:21:04.568Z,13.80
2023-04-29T08:24:06.436Z,17.83
2023-04-29T08:27:08.582Z,11.88
2023-04-29T08:30:10.795Z,13.60
2023-04-29T08:33:13.140Z,13.75
2023-04-29T08:36:15.507Z,13.23
2023-04-29T08:39:18.346Z,9.57
2023-04-29T08:42:36.917Z,11.05
2023-04-29T08:45:40.056Z,12.40
2023-04-29T08:48:45.018Z,10.90
2023-04-29T08:51:53.082Z,8.38
2023-04-29T08:54:54.994Z,11.13
2023-04-29T08:57:57.610Z,6.93
2023-04-29T09:00:59.424Z,7.03
2023-04-29T09:04:36.749Z,9.75
2023-04-29T09:07:39.915Z,8.65
2023-04-29T09:10:43.179Z,7.82
2023-04-29T09:13:44.970Z,8.00
2023-04-29T09:16:47.402Z,6.80
2023-04-29T09:19:49.309Z,7.53
2023-04-29T09:22:52.254Z,11.55
2023-04-29T09:25:57.680Z,8.82
2023-04-29T09:29:18.505Z,6.93
2023-04-29T09:32:21.545Z,9.95
2023-04-29T09:35:28.139Z,6.95
2023-04-29T09:38:29.987Z,8.73
2023-04-29T09:41:32.333Z,7.47
2023-04-29T09:44:37.959Z,8.13
2023-04-29T09:47:39.804Z,7.32
2023-04-29T09:50:43.973Z,8.82
2023-04-29T09:53:45.932Z,6.50
2023-04-29T09:56:52.493Z,11.27
2023-04-29T09:59:54.210Z,5.82
2023-04-29T10:02:59.331Z,5.53
2023-04-29T10:06:02.821Z,6.68
2023-04-29T10:09:07.383Z,9.57
2023-04-29T10:12:09.511Z,6.63
2023-04-29T10:15:20.341Z,13.95
2023-04-29T10:18:30.542Z,18.35
2023-04-29T10:21:32.566Z,7.78
2023-04-29T10:24:37.818Z,5.97
2023-04-29T10:27:43.081Z,6.78
2023-04-29T10:30:45.726Z,4.95
2023-04-29T10:33:48.358Z,8.13
2023-04-29T10:36:50.847Z,9.00
2023-04-29T10:40:16.592Z,5.57
2023-04-29T10:43:26.920Z,12.57
2023-04-29T10:46:28.842Z,8.27
2023-04-29T10:49:36.915Z,6.47
2023-04-29T10:52:55.938Z,7.65
2023-04-29T10:56:00.166Z,5.78
2023-04-29T10:59:01.916Z,6.07
2023-04-29T11:02:03.713Z,7.95
2023-04-29T11:05:10.591Z,5.72
2023-04-29T11:08:13.832Z,9.65
2023-04-29T11:11:15.975Z,5.90
2023-04-29T11:14:24.090Z,4.97
2023-04-29T11:17:27.157Z,7.60
2023-04-29T11:20:30.217Z,8.13
2023-04-29T11:23:45.577Z,4.25
2023-04-29T11:26:48.975Z,5.00
2023-04-29T11:29:52.450Z,8.13
2023-04-29T11:32:54.510Z,6.80
2023-04-29T11:35:57.041Z,6.03
2023-04-29T11:39:01.310Z,6.13
2023-04-29T11:42:06.948Z,4.80
2023-04-29T11:45:09.276Z,5.65
2023-04-29T11:48:21.729Z,6.68
2023-04-29T11:51:23.637Z,5.57
2023-04-29T11:54:27.105Z,5.30
2023-04-29T11:57:29.126Z,6.50
2023-04-29T12:00:31.608Z,7.28
2023-04-29T12:03:34.181Z,6.10
2023-04-29T12:06:37.005Z,5.57
2023-04-29T12:09:43.839Z,5.57
2023-04-29T12:12:46.611Z,5.93
2023-04-29T12:15:50.511Z,8.20
2023-04-29T12:18:53.516Z,10.40
2023-04-29T12:21:59.348Z,5.78
2023-04-29T12:25:04.282Z,5.20
2023-04-29T12:28:08.366Z,8.23
2023-04-29T12:31:13.655Z,5.95
2023-04-29T12:34:15.467Z,4.15
2023-04-29T12:37:17.897Z,4.75
2023-04-29T12:40:21.052Z,6.47
2023-04-29T12:43:30.550Z,7.88
2023-04-29T12:46:38.398Z,6.57
2023-04-29T12:49:45.451Z,6.07
2023-04-29T12:52:47.222Z,7.03
2023-04-29T12:55:49.083Z,4.60
2023-04-29T12:58:50.876Z,7.45
2023-04-29T13:01:54.701Z,6.93
2023-04-29T13:04:56.694Z,5.18
2023-04-29T13:07:58.871Z,5.10
2023-04-29T13:11:00.773Z,5.63
2023-04-29T13:14:02.583Z,6.78
2023-04-29T13:17:04.686Z,12.02
2023-04-29T13:20:10.640Z,6.72
2023-04-29T13:23:13.050Z,4.03
2023-04-29T13:26:14.880Z,4.32
2023-04-29T13:29:16.880Z,5.65
2023-04-29T13:32:19.125Z,6.03
2023-04-29T13:35:21.106Z,5.35
2023-04-29T13:38:23.073Z,11.07
2023-04-29T13:41:26.589Z,9.95
2023-04-29T13:44:36.005Z,6.15
2023-04-29T13:48:06.663Z,7.70
2023-04-29T14:00:55.152Z,5.65
2023-04-29T14:03:47.895Z,4.18
2023-04-29T14:06:50.042Z,3.88
2023-04-29T14:09:51.958Z,5.80
2023-04-29T14:12:53.715Z,7.63
2023-04-29T14:15:56.706Z,7.80
2023-04-29T14:18:59.690Z,7.18
2023-04-29T14:22:03.040Z,6.65
2023-04-29T14:25:08.309Z,7.55
2023-04-29T14:28:11.587Z,6.95
2023-04-29T14:31:14.012Z,6.53
2023-04-29T14:34:16.003Z,5.28
2023-04-29T14:37:17.879Z,4.35
2023-04-29T14:40:20.005Z,4.82
2023-04-29T14:43:22.080Z,5.85
2023-04-29T14:46:24.993Z,5.38
2023-04-29T14:49:27.444Z,6.82
2023-04-29T14:52:30.654Z,5.78
2023-04-29T14:55:32.436Z,7.85
2023-04-29T14:58:34.348Z,4.63
2023-04-29T15:01:36.660Z,6.22
2023-04-29T15:04:39.886Z,4.53
2023-04-29T15:07:42.316Z,6.60
2023-04-29T15:10:47.945Z,6.32
2023-04-29T15:13:50.733Z,7.35
2023-04-29T15:16:52.550Z,7.43
2023-04-29T15:19:54.368Z,7.28
2023-04-29T15:22:56.235Z,6.75
2023-04-29T15:25:58.088Z,6.60
2023-04-29T15:28:59.871Z,7.93
2023-04-29T15:32:01.823Z,5.85
2023-04-29T15:35:04.825Z,6.57
2023-04-29T15:38:07.968Z,4.72
2023-04-29T15:41:10.078Z,5.70
2023-04-29T15:44:12.023Z,5.78
2023-04-29T15:47:14.916Z,6.57
2023-04-29T15:50:16.668Z,10.73
2023-04-29T15:53:18.441Z,6.28
2023-04-29T15:56:21.034Z,4.85
2023-04-29T15:59:22.886Z,5.38
2023-04-29T16:02:24.778Z,5.65
2023-04-29T16:05:26.915Z,7.25
2023-04-29T16:08:28.761Z,6.43
2023-04-29T16:11:31.962Z,8.43
2023-04-29T16:14:33.887Z,7.00
2023-04-29T16:17:35.682Z,6.43
2023-04-29T16:20:37.469Z,5.00
2023-04-29T16:23:39.248Z,6.40
2023-04-29T16:26:41.505Z,11.30
2023-04-29T16:29:43.397Z,7.88
2023-04-29T16:32:45.140Z,5.53
2023-04-29T16:35:47.034Z,10.98
2023-04-29T16:38:49.236Z,5.97
2023-04-29T16:41:51.591Z,5.40
2023-04-29T16:44:53.398Z,11.57
2023-04-29T16:47:55.322Z,7.63
2023-04-29T16:50:58.429Z,8.35
2023-04-29T16:54:00.286Z,7.25
2023-04-29T16:57:02.512Z,10.85
2023-04-29T17:00:04.829Z,7.38
2023-04-29T17:03:06.777Z,9.25
2023-04-29T17:06:09.274Z,13.70
2023-04-29T17:09:11.537Z,6.90
2023-04-29T17:12:13.612Z,7.47
2023-04-29T17:15:16.012Z,9.90
2023-04-29T17:18:19.949Z,16.75
2023-04-29T17:21:24.856Z,7.68
2023-04-29T17:24:26.684Z,8.75
2023-04-29T17:27:28.459Z,25.42
2023-04-29T17:30:30.225Z,19.77
2023-04-29T17:33:35.588Z,24.15
2023-04-29T17:36:37.461Z,34.58
2023-04-29T17:39:39.442Z,38.40
2023-04-29T17:42:41.663Z,28.30
2023-04-29T17:45:43.607Z,47.15
2023-04-29T17:48:45.436Z,54.85
2023-04-29T17:51:47.332Z,40.75
2023-04-29T17:54:49.122Z,23.33
2023-04-29T17:57:51.088Z,18.35
2023-04-29T18:00:53.074Z,21.30
2023-04-29T18:03:54.895Z,23.30
2023-04-29T18:06:56.705Z,24.63
2023-04-29T18:09:58.656Z,20.67
2023-04-29T18:13:00.690Z,25.15
2023-04-29T18:16:02.441Z,19.50
2023-04-29T18:19:04.685Z,25.15
2023-04-29T18:22:07.480Z,43.45
2023-04-29T18:25:11.159Z,42.15
2023-04-29T18:28:23.474Z,43.30
2023-04-29T18:31:26.604Z,48.05
2023-04-29T18:34:28.466Z,43.15
2023-04-29T18:37:30.985Z,52.17
2023-04-29T18:40:32.794Z,46.40
2023-04-29T18:43:34.935Z,64.35
2023-04-29T18:46:36.826Z,96.70
2023-04-29T18:49:38.761Z,81.53
2023-04-29T18:52:41.010Z,39.80
2023-04-29T18:55:42.805Z,36.40
2023-04-29T18:58:44.618Z,26.13
2023-04-29T19:01:47.680Z,31.00
2023-04-29T19:04:50.389Z,34.47
2023-04-29T19:07:52.212Z,33.38
2023-04-29T19:10:54.137Z,31.77
2023-04-29T19:13:56.179Z,36.10
2023-04-29T19:16:57.969Z,35.50
2023-04-29T19:20:00.168Z,31.23
2023-04-29T19:23:02.750Z,29.25
2023-04-29T19:26:04.610Z,30.38
2023-04-29T19:29:07.294Z,22.30
2023-04-29T19:32:09.147Z,17.70
2023-04-29T19:35:12.304Z,19.35
2023-04-29T19:38:14.762Z,14.82
2023-04-29T19:41:16.803Z,13.27
2023-04-29T19:44:18.627Z,13.27
2023-04-29T19:47:20.401Z,11.20
2023-04-29T19:50:22.723Z,12.13
2023-04-29T19:53:24.758Z,11.82
2023-04-29T19:56:27.039Z,13.88
2023-04-29T19:59:30.263Z,11.35
2023-04-29T20:02:33.028Z,14.55
2023-04-29T20:05:35.158Z,14.77
2023-04-29T20:08:37.368Z,9.70
2023-04-29T20:11:39.228Z,13.88
2023-04-29T20:14:41.311Z,11.45
2023-04-29T20:17:43.148Z,9.52
2023-04-29T20:20:45.498Z,11.35
2023-04-29T20:23:47.210Z,11.20
2023-04-29T20:26:48.988Z,13.00
2023-04-29T20:29:51.131Z,12.18
2023-04-29T20:32:53.119Z,9.88
2023-04-29T20:35:54.977Z,10.93
2023-04-29T20:38:57.324Z,15.02
2023-04-29T20:41:59.187Z,14.32
2023-04-29T20:45:31.418Z,10.23
2023-04-29T20:48:36.668Z,13.27
2023-04-29T20:51:39.481Z,9.55
2023-04-29T20:54:41.736Z,9.10
2023-04-29T20:57:43.614Z,12.93
2023-04-29T21:00:45.920Z,9.25
2023-04-29T21:03:47.646Z,11.35
2023-04-29T21:06:52.569Z,11.18
2023-04-29T21:09:54.759Z,8.82
2023-04-29T21:12:56.716Z,11.55
2023-04-29T21:15:58.607Z,11.30
2023-04-29T21:19:00.473Z,8.23
2023-04-29T21:22:02.299Z,10.35
2023-04-29T21:25:05.524Z,14.90
2023-04-29T21:28:07.341Z,8.43
2023-04-29T21:31:15.280Z,12.27
2023-04-29T21:37:18.825Z,8.45
2023-04-29T21:40:20.683Z,10.63
2023-04-29T21:43:22.657Z,10.93
2023-04-29T21:46:28.286Z,7.68
2023-04-29T21:49:30.817Z,8.52
2023-04-29T21:52:35.202Z,7.60
2023-04-29T21:55:38.102Z,9.38
2023-04-29T21:58:41.006Z,9.50
2023-04-29T22:01:44.572Z,8.32
2023-04-29T22:04:46.508Z,10.93
2023-04-29T22:07:48.321Z,12.70
2023-04-29T22:10:50.497Z,9.38
2023-04-29T22:13:52.407Z,9.82
2023-04-29T22:16:54.227Z,7.43
2023-04-29T22:19:56.238Z,12.57
2023-04-29T22:22:58.190Z,10.90
2023-04-29T22:26:00.001Z,8.02
2023-04-29T22:29:01.849Z,9.60
2023-04-29T22:32:04.002Z,12.25
2023-04-29T22:35:06.419Z,13.02
2023-04-29T22:38:08.265Z,9.75
2023-04-29T22:41:11.712Z,10.30
2023-04-29T22:44:13.887Z,9.63
2023-04-29T22:47:16.089Z,8.80
2023-04-29T22:50:17.860Z,14.65
2023-04-29T22:53:21.268Z,10.82
2023-04-29T22:56:24.586Z,10.48
2023-04-29T22:59:26.452Z,9.30
2023-04-29T23:02:29.709Z,14.63
2023-04-29T23:05:32.463Z,12.27
2023-04-29T23:08:34.285Z,10.20
2023-04-29T23:11:37.422Z,10.27
2023-04-29T23:14:39.229Z,9.68
2023-04-29T23:17:41.203Z,11.43
2023-04-29T23:20:47.259Z,8.80
2023-04-29T23:23:49.144Z,12.35
2023-04-29T23:26:51.131Z,7.22
2023-04-29T23:29:53.126Z,9.18
2023-04-29T23:32:55.200Z,9.57
2023-04-29T23:35:57.270Z,7.30
2023-04-29T23:38:59.336Z,10.68
2023-04-29T23:42:01.149Z,11.30
2023-04-29T23:45:03.071Z,8.73
2023-04-29T23:48:04.953Z,10.60
2023-04-29T23:51:06.928Z,11.15
2023-04-29T23:54:08.849Z,8.40
2023-04-29T23:57:10.848Z,10.18
